USCGC Polar Star — NBTM — position and weather

sailwx.info

Track history (hours):
 
Tides and Currents Weather Stations Pressure Air Temp Water Temp Dewpoint Dewpoint Depression Visibility Wind Speed Wind Dir Waves Ship Positions

Oceanographic research ship USCGC Polar Star (USA)

Detailed information on ship capabilities available from University of Delaware's Ocean Information Center and ARCUS's ALIAS (Arctic Logistics Information and Support) project.

Last reported at 2015-Sep-02 15:32 UTC. Time now 2015-Sep-05 10:13 UTC.
Position N 47°36' W 122°21'.

Type: Military. MMSI: 367255000.

Date/timePositionNaut miles runAvg speedWind from/ knotsBaromVisibWave heightAir tempDewpointWater temp
2015-Sep-02 15:32N 47°36' W 122°21'9 9.4
2015-Sep-02 14:34N 47°44' W 122°27'1313.0
2015-Sep-02 13:33N 47°56' W 122°32'1514.3
2015-Sep-02 12:29N 48°09' W 122°45'1313.9
2015-Sep-02 11:32N 48°12' W 123°04'1515.4
2015-Sep-02 10:33N 48°13' W 123°27'6613.0
2015-Sep-02 05:27N 48°23' W 125°05'8011.6
2015-Sep-01 22:34N 47°03' W 125°08'1010.3
2015-Sep-01 21:33N 46°54' W 125°00'10 9.8
2015-Sep-01 20:33N 46°45' W 124°56'1414.0
2015-Sep-01 19:33N 46°31' W 124°55'1313.5
2015-Sep-01 18:33N 46°17' W 124°53'1414.2
2015-Sep-01 17:34N 46°03' W 124°52'1716.9
2015-Sep-01 16:33N 45°46' W 124°51'1716.7
2015-Sep-01 15:33N 45°30' W 124°49'40715.0
2015-Aug-31 12:22N 38°45' W 123°42'1113.1
2015-Aug-31 11:33N 38°36' W 123°35'4 4.3
2015-Aug-31 10:33N 38°33' W 123°32'6 6.3
2015-Aug-31 09:33N 38°27' W 123°27'1110.7
2015-Aug-31 08:33N 38°18' W 123°20'1110.8
2015-Aug-31 07:33N 38°09' W 123°13'1514.8
2015-Aug-31 06:33N 37°57' W 123°03'1211.9
2015-Aug-31 05:33N 37°50' W 122°50'1211.5
2015-Aug-31 04:33N 37°47' W 122°36'9 9.4
2015-Aug-31 03:34N 37°50' W 122°25'4 3.9
2015-Aug-31 02:33N 37°48' W 122°22'0 0.0
2015-Aug-31 01:34N 37°48' W 122°22'0 0.0
2015-Aug-31 00:33N 37°48' W 122°22'0 0.0
2015-Aug-30 23:33N 37°48' W 122°22'0 0.3
2015-Aug-30 22:33N 37°48' W 122°21'1 1.1
2015-Aug-30 21:33N 37°47' W 122°23'0 0.2
2015-Aug-30 20:33N 37°47' W 122°23'0 0.0
2015-Aug-29 01:31N 37°47' W 122°23'1 1.4
2015-Aug-29 00:33N 37°48' W 122°24'8 7.8
2015-Aug-28 23:33N 37°56' W 122°27'8 7.7
2015-Aug-28 22:33N 38°02' W 122°21'6 5.6
2015-Aug-28 21:33N 38°05' W 122°15'  
Track history (hours):
 
Tides and Currents Weather Stations Pressure Air Temp Water Temp Dewpoint Dewpoint Depression Visibility Wind Speed Wind Dir Waves Ship Positions

Oceanographic research ship USCGC Polar Star (USA)

Detailed information on ship capabilities available from University of Delaware's Ocean Information Center and ARCUS's ALIAS (Arctic Logistics Information and Support) project.

Last reported at 2015-Sep-02 15:32 UTC. Time now 2015-Sep-05 10:13 UTC.
Position N 47°36' W 122°21'.

Type: Military. MMSI: 367255000.

Date/timePositionNaut miles runAvg speedWind from/ knotsBaromVisibWave heightAir tempDewpointWater temp
2015-Sep-02 15:32N 47°36' W 122°21'9 9.4
2015-Sep-02 14:34N 47°44' W 122°27'1313.0
2015-Sep-02 13:33N 47°56' W 122°32'1514.3
2015-Sep-02 12:29N 48°09' W 122°45'1313.9
2015-Sep-02 11:32N 48°12' W 123°04'1515.4
2015-Sep-02 10:33N 48°13' W 123°27'6613.0
2015-Sep-02 05:27N 48°23' W 125°05'8011.6
2015-Sep-01 22:34N 47°03' W 125°08'1010.3
2015-Sep-01 21:33N 46°54' W 125°00'10 9.8
2015-Sep-01 20:33N 46°45' W 124°56'1414.0
2015-Sep-01 19:33N 46°31' W 124°55'1313.5
2015-Sep-01 18:33N 46°17' W 124°53'1414.2
2015-Sep-01 17:34N 46°03' W 124°52'1716.9
2015-Sep-01 16:33N 45°46' W 124°51'1716.7
2015-Sep-01 15:33N 45°30' W 124°49'40715.0
2015-Aug-31 12:22N 38°45' W 123°42'1113.1
2015-Aug-31 11:33N 38°36' W 123°35'4 4.3
2015-Aug-31 10:33N 38°33' W 123°32'6 6.3
2015-Aug-31 09:33N 38°27' W 123°27'1110.7
2015-Aug-31 08:33N 38°18' W 123°20'1110.8
2015-Aug-31 07:33N 38°09' W 123°13'1514.8
2015-Aug-31 06:33N 37°57' W 123°03'1211.9
2015-Aug-31 05:33N 37°50' W 122°50'1211.5
2015-Aug-31 04:33N 37°47' W 122°36'9 9.4
2015-Aug-31 03:34N 37°50' W 122°25'4 3.9
2015-Aug-31 02:33N 37°48' W 122°22'0 0.0
2015-Aug-31 01:34N 37°48' W 122°22'0 0.0
2015-Aug-31 00:33N 37°48' W 122°22'0 0.0
2015-Aug-30 23:33N 37°48' W 122°22'0 0.3
2015-Aug-30 22:33N 37°48' W 122°21'1 1.1
2015-Aug-30 21:33N 37°47' W 122°23'0 0.2
2015-Aug-30 20:33N 37°47' W 122°23'0 0.0
2015-Aug-29 01:31N 37°47' W 122°23'1 1.4
2015-Aug-29 00:33N 37°48' W 122°24'8 7.8
2015-Aug-28 23:33N 37°56' W 122°27'8 7.7
2015-Aug-28 22:33N 38°02' W 122°21'6 5.6
2015-Aug-28 21:33N 38°05' W 122°15'  

Dump ship's entire track history